createdAt,value
2018-09-12T00:01:53.306Z,49.54
2018-09-12T00:06:48.515Z,49.50
2018-09-12T00:09:16.063Z,50.13
2018-09-12T00:11:43.898Z,50.13
2018-09-12T00:14:11.986Z,50.25
2018-09-12T00:16:39.735Z,49.95
2018-09-12T00:19:08.055Z,49.86
2018-09-12T00:21:36.219Z,49.62
2018-09-12T00:24:04.015Z,49.99
2018-09-12T00:26:31.743Z,50.13
2018-09-12T00:28:59.491Z,51.15
2018-09-12T00:31:27.018Z,50.84
2018-09-12T00:33:54.965Z,49.87
2018-09-12T00:36:22.935Z,50.78
2018-09-12T00:38:50.168Z,51.01
2018-09-12T00:41:18.294Z,50.49
2018-09-12T00:43:45.959Z,49.97
2018-09-12T00:46:13.863Z,50.01
2018-09-12T00:48:41.579Z,50.36
2018-09-12T00:51:09.291Z,50.57
2018-09-12T00:53:36.982Z,50.49
2018-09-12T00:58:16.734Z,51.22
2018-09-12T01:00:44.455Z,51.07
2018-09-12T01:03:12.031Z,51.17
2018-09-12T01:05:41.822Z,50.93
2018-09-12T01:08:10.902Z,51.24
2018-09-12T01:10:38.651Z,50.63
2018-09-12T01:13:06.386Z,50.98
2018-09-12T01:15:34.020Z,51.52
2018-09-12T01:18:01.854Z,51.28
2018-09-12T01:20:29.568Z,50.87
2018-09-12T01:22:57.165Z,51.43
2018-09-12T01:25:24.939Z,51.99
2018-09-12T01:27:56.039Z,51.53
2018-09-12T01:30:23.976Z,51.44
2018-09-12T01:32:53.980Z,51.72
2018-09-12T01:35:21.562Z,51.31
2018-09-12T01:37:49.663Z,51.35
2018-09-12T01:40:17.549Z,51.11
2018-09-12T01:42:45.519Z,52.04
2018-09-12T01:45:15.530Z,51.81
2018-09-12T01:47:43.376Z,52.05
2018-09-12T01:50:11.015Z,51.47
2018-09-12T01:52:38.816Z,52.27
2018-09-12T01:55:06.582Z,51.37
2018-09-12T01:57:34.295Z,50.90
2018-09-12T02:00:01.488Z,51.22
2018-09-12T02:02:29.296Z,51.77
2018-09-12T02:04:56.960Z,51.91
2018-09-12T02:07:24.627Z,51.78
2018-09-12T02:09:52.414Z,51.75
2018-09-12T02:12:20.010Z,51.97
2018-09-12T02:14:47.222Z,51.74
2018-09-12T02:17:14.927Z,52.01
2018-09-12T02:19:42.667Z,51.30
2018-09-12T02:22:10.538Z,51.88
2018-09-12T02:24:38.547Z,52.35
2018-09-12T02:27:06.178Z,52.56
2018-09-12T02:29:34.003Z,52.11
2018-09-12T02:32:01.187Z,51.50
2018-09-12T02:34:28.843Z,51.86
2018-09-12T02:36:56.719Z,51.70
2018-09-12T02:39:24.495Z,50.88
2018-09-12T02:41:52.053Z,51.94
2018-09-12T02:44:19.958Z,51.10
2018-09-12T02:48:58.979Z,51.61
2018-09-12T02:51:26.592Z,51.83
2018-09-12T02:53:54.439Z,51.73
2018-09-12T02:56:22.028Z,51.31
2018-09-12T02:58:49.337Z,52.27
2018-09-12T03:01:16.942Z,52.29
2018-09-12T03:03:44.725Z,51.58
2018-09-12T03:06:12.959Z,52.20
2018-09-12T03:08:41.007Z,52.42
2018-09-12T03:11:09.303Z,52.28
2018-09-12T03:13:36.986Z,52.04
2018-09-12T03:16:04.840Z,52.08
2018-09-12T03:18:32.615Z,52.06
2018-09-12T03:21:00.444Z,52.27
2018-09-12T03:23:27.499Z,52.94
2018-09-12T03:25:55.022Z,52.37
2018-09-12T03:28:22.303Z,53.19
2018-09-12T03:30:50.309Z,52.89
2018-09-12T03:33:17.874Z,52.48
2018-09-12T03:35:45.858Z,52.53
2018-09-12T03:38:13.567Z,53.43
2018-09-12T03:40:41.218Z,52.46
2018-09-12T03:43:08.747Z,53.00
2018-09-12T03:45:36.309Z,52.44
2018-09-12T03:48:04.070Z,53.31
2018-09-12T03:50:31.640Z,53.39
2018-09-12T03:52:59.413Z,53.12
2018-09-12T03:55:26.999Z,52.80
2018-09-12T03:57:54.752Z,52.68
2018-09-12T04:00:22.459Z,52.39
2018-09-12T04:02:50.376Z,52.89
2018-09-12T04:05:17.975Z,53.09
2018-09-12T04:07:45.752Z,53.18
2018-09-12T04:10:13.574Z,53.34
2018-09-12T04:12:41.179Z,52.61
2018-09-12T04:15:08.875Z,52.20
2018-09-12T04:17:36.979Z,52.46
2018-09-12T04:20:04.991Z,52.88
2018-09-12T04:22:32.582Z,52.75
2018-09-12T04:25:00.202Z,52.34
2018-09-12T04:27:27.787Z,52.65
2018-09-12T04:31:56.014Z,53.18
2018-09-12T04:34:23.762Z,53.33
2018-09-12T04:36:51.516Z,53.21
2018-09-12T04:39:19.822Z,53.63
2018-09-12T04:41:47.863Z,53.90
2018-09-12T04:44:15.872Z,53.75
2018-09-12T04:46:44.515Z,53.60
2018-09-12T04:49:12.324Z,54.32
2018-09-12T04:51:39.909Z,54.03
2018-09-12T04:54:07.598Z,54.19
2018-09-12T04:56:35.447Z,54.90
2018-09-12T04:59:02.785Z,53.96
2018-09-12T05:01:30.991Z,54.81
2018-09-12T05:03:58.604Z,54.37
2018-09-12T05:06:26.493Z,51.54
2018-09-12T05:08:53.670Z,53.69
2018-09-12T05:11:21.438Z,54.04
2018-09-12T05:13:49.455Z,54.26
2018-09-12T05:16:17.010Z,54.08
2018-09-12T05:18:44.655Z,54.68
2018-09-12T05:21:12.298Z,54.90
2018-09-12T05:23:39.889Z,54.21
2018-09-12T05:26:08.677Z,53.91
2018-09-12T05:28:36.454Z,53.32
2018-09-12T05:31:04.193Z,53.02
2018-09-12T05:35:55.638Z,53.94
2018-09-12T05:38:23.335Z,53.84
2018-09-12T05:40:51.163Z,54.56
2018-09-12T05:43:18.861Z,54.29
2018-09-12T05:45:46.703Z,53.19
2018-09-12T05:48:14.468Z,53.99
2018-09-12T05:50:42.181Z,53.44
2018-09-12T05:53:09.879Z,53.56
2018-09-12T05:55:37.605Z,53.30
2018-09-12T05:58:05.197Z,53.73
2018-09-12T06:00:33.223Z,54.64
2018-09-12T06:03:00.915Z,54.61
2018-09-12T06:05:28.623Z,53.98
2018-09-12T06:07:56.464Z,53.66
2018-09-12T06:10:24.221Z,54.34
2018-09-12T06:12:51.887Z,54.40
2018-09-12T06:18:02.591Z,54.05
2018-09-12T06:20:30.383Z,54.80
2018-09-12T06:22:58.201Z,55.08
2018-09-12T06:25:25.935Z,55.18
2018-09-12T06:27:53.659Z,56.08
2018-09-12T06:30:21.434Z,55.33
2018-09-12T06:32:49.025Z,54.89
2018-09-12T06:35:16.966Z,55.75
2018-09-12T06:37:44.423Z,55.22
2018-09-12T06:40:12.031Z,55.13
2018-09-12T06:42:39.735Z,54.81
2018-09-12T06:45:07.663Z,53.84
2018-09-12T06:47:35.544Z,54.49
2018-09-12T06:50:03.294Z,54.17
2018-09-12T06:52:30.499Z,54.23
2018-09-12T06:54:58.163Z,53.37
2018-09-12T06:57:25.971Z,53.88
2018-09-12T06:59:53.620Z,53.99
2018-09-12T07:02:20.876Z,53.80
2018-09-12T07:04:48.645Z,53.25
2018-09-12T07:07:16.518Z,53.69
2018-09-12T07:09:44.362Z,53.67
2018-09-12T07:12:11.995Z,53.23
2018-09-12T07:14:39.291Z,54.26
2018-09-12T07:17:06.923Z,53.87
2018-09-12T07:19:35.052Z,54.61
2018-09-12T07:22:02.733Z,54.23
2018-09-12T07:24:30.650Z,53.89
2018-09-12T07:26:58.410Z,53.92
2018-09-12T07:29:25.583Z,53.26
2018-09-12T07:31:53.451Z,53.80
2018-09-12T07:34:21.054Z,53.51
2018-09-12T07:36:48.830Z,52.51
2018-09-12T07:39:16.597Z,52.57
2018-09-12T07:41:44.381Z,52.53
2018-09-12T07:44:11.966Z,52.85
2018-09-12T07:46:39.795Z,52.94
2018-09-12T07:49:07.732Z,52.53
2018-09-12T07:51:35.537Z,52.46
2018-09-12T07:54:03.307Z,53.08
2018-09-12T07:56:30.546Z,52.01
2018-09-12T07:58:58.159Z,52.26
2018-09-12T08:01:25.967Z,52.62
2018-09-12T08:03:53.739Z,52.31
2018-09-12T08:06:21.574Z,52.15
2018-09-12T08:08:49.494Z,52.56
2018-09-12T08:11:17.555Z,52.15
2018-09-12T08:13:45.192Z,51.93
2018-09-12T08:16:12.920Z,53.08
2018-09-12T08:18:40.603Z,51.91
2018-09-12T08:21:09.459Z,52.62
2018-09-12T08:23:37.590Z,52.02
2018-09-12T08:26:05.354Z,52.53
2018-09-12T08:28:33.017Z,51.85
2018-09-12T08:31:00.735Z,51.82
2018-09-12T08:33:28.580Z,51.92
2018-09-12T08:35:57.072Z,52.17
2018-09-12T08:38:24.757Z,52.21
2018-09-12T08:40:52.571Z,51.39
2018-09-12T08:43:20.484Z,51.82
2018-09-12T08:45:48.197Z,51.55
2018-09-12T08:48:15.982Z,52.17
2018-09-12T08:50:46.815Z,51.93
2018-09-12T08:53:14.892Z,52.06
2018-09-12T08:55:42.604Z,51.78
2018-09-12T08:58:10.427Z,50.89
2018-09-12T09:00:38.126Z,51.35
2018-09-12T09:03:06.583Z,51.41
2018-09-12T09:05:34.298Z,51.10
2018-09-12T09:08:01.502Z,50.86
2018-09-12T09:10:29.112Z,51.53
2018-09-12T09:12:57.379Z,51.24
2018-09-12T09:15:25.971Z,50.97
2018-09-12T09:17:53.201Z,50.78
2018-09-12T09:20:20.943Z,50.34
2018-09-12T09:22:48.700Z,50.22
2018-09-12T09:25:16.700Z,50.48
2018-09-12T09:27:44.731Z,50.35
2018-09-12T09:30:12.547Z,50.97
2018-09-12T09:32:40.230Z,50.29
2018-09-12T09:35:08.456Z,49.86
2018-09-12T09:37:36.201Z,50.72
2018-09-12T09:40:04.585Z,50.73
2018-09-12T09:42:32.075Z,49.97
2018-09-12T09:44:59.734Z,49.53
2018-09-12T09:47:27.646Z,50.08
2018-09-12T09:49:56.579Z,50.11
2018-09-12T09:52:25.699Z,50.30
2018-09-12T09:54:53.624Z,49.48
2018-09-12T09:57:21.755Z,49.12
2018-09-12T09:59:49.645Z,49.12
2018-09-12T10:02:18.290Z,49.11
2018-09-12T10:04:51.734Z,48.84
2018-09-12T10:07:25.544Z,49.17
2018-09-12T10:10:08.504Z,48.90
2018-09-12T10:12:36.307Z,48.55
2018-09-12T10:15:04.991Z,49.03
2018-09-12T10:17:33.575Z,48.67
2018-09-12T10:20:01.312Z,48.04
2018-09-12T10:22:29.963Z,48.44
2018-09-12T10:26:59.994Z,48.84
2018-09-12T10:29:27.627Z,48.40
2018-09-12T10:31:55.491Z,48.05
2018-09-12T10:34:23.332Z,48.68
2018-09-12T10:36:50.994Z,47.87
2018-09-12T10:39:18.667Z,48.01
2018-09-12T10:41:46.434Z,48.54
2018-09-12T10:44:14.306Z,48.15
2018-09-12T10:46:41.920Z,48.42
2018-09-12T10:49:09.579Z,47.67
2018-09-12T10:51:37.411Z,47.64
2018-09-12T10:54:05.019Z,48.11
2018-09-12T10:56:32.302Z,48.18
2018-09-12T10:59:00.099Z,48.19
2018-09-12T11:01:27.815Z,48.17
2018-09-12T11:03:55.522Z,47.27
2018-09-12T11:06:23.209Z,47.26
2018-09-12T11:08:51.017Z,47.87
2018-09-12T11:11:18.730Z,46.88
2018-09-12T11:13:46.600Z,46.92
2018-09-12T11:16:14.438Z,47.79
2018-09-12T11:18:42.019Z,47.23
2018-09-12T11:21:09.183Z,46.85
2018-09-12T11:23:36.936Z,47.16
2018-09-12T11:26:04.623Z,46.74
2018-09-12T11:28:32.311Z,46.28
2018-09-12T11:30:59.895Z,46.52
2018-09-12T11:33:27.701Z,46.41
2018-09-12T11:35:55.466Z,46.54
2018-09-12T11:38:23.168Z,47.20
2018-09-12T11:40:50.918Z,47.04
2018-09-12T11:43:18.619Z,46.62
2018-09-12T11:45:46.329Z,46.18
2018-09-12T11:48:14.210Z,45.30
2018-09-12T11:50:41.735Z,46.21
2018-09-12T11:53:09.431Z,45.93
2018-09-12T11:55:37.200Z,45.77
2018-09-12T11:58:04.901Z,46.30
2018-09-12T12:00:32.803Z,45.80
2018-09-12T12:03:00.511Z,45.49
2018-09-12T12:05:28.516Z,45.83
2018-09-12T12:07:56.303Z,45.98
2018-09-12T12:10:24.141Z,46.21
2018-09-12T12:12:51.738Z,46.11
2018-09-12T12:15:19.577Z,46.16
2018-09-12T12:17:46.655Z,45.26
2018-09-12T12:20:14.307Z,44.54
2018-09-12T12:22:41.887Z,44.80
2018-09-12T12:25:09.738Z,45.50
2018-09-12T12:27:37.604Z,44.72
2018-09-12T12:30:05.472Z,44.60
2018-09-12T12:32:33.086Z,45.21
2018-09-12T12:35:00.868Z,44.61
2018-09-12T12:37:28.591Z,44.92
2018-09-12T12:39:56.074Z,44.75
2018-09-12T12:42:23.837Z,44.70
2018-09-12T12:44:51.758Z,43.65
2018-09-12T12:47:19.495Z,43.87
2018-09-12T12:49:47.037Z,43.66
2018-09-12T12:52:14.337Z,43.77
2018-09-12T12:54:41.931Z,43.41
2018-09-12T12:57:09.582Z,43.52
2018-09-12T12:59:37.072Z,43.26
2018-09-12T13:02:04.887Z,42.62
2018-09-12T13:04:32.578Z,42.68
2018-09-12T13:07:00.181Z,42.39
2018-09-12T13:09:27.763Z,42.69
2018-09-12T13:11:55.479Z,43.41
2018-09-12T13:14:22.627Z,43.64
2018-09-12T13:16:50.461Z,42.51
2018-09-12T13:19:18.023Z,42.57
2018-09-12T13:21:45.902Z,43.08
2018-09-12T13:24:13.469Z,42.83
2018-09-12T13:26:41.032Z,42.41
2018-09-12T13:29:08.220Z,41.62
2018-09-12T13:31:35.954Z,42.47
2018-09-12T13:34:03.784Z,42.76
2018-09-12T13:36:31.471Z,42.81
2018-09-12T13:38:59.051Z,42.24
2018-09-12T13:41:26.747Z,42.68
2018-09-12T13:43:54.467Z,43.06
2018-09-12T13:46:22.018Z,43.03
2018-09-12T13:48:49.843Z,43.46
2018-09-12T13:51:17.619Z,42.66
2018-09-12T13:53:45.360Z,42.91
2018-09-12T13:56:13.027Z,43.09
2018-09-12T13:58:40.851Z,42.91
2018-09-12T14:01:08.659Z,43.88
2018-09-12T14:03:36.466Z,43.51
2018-09-12T14:06:04.059Z,42.61
2018-09-12T14:08:31.747Z,42.10
2018-09-12T14:10:59.475Z,42.38
2018-09-12T14:13:27.311Z,42.44
2018-09-12T14:15:54.954Z,43.12
2018-09-12T14:18:22.611Z,43.01
2018-09-12T14:20:50.324Z,42.97
2018-09-12T14:23:17.900Z,42.93
2018-09-12T14:25:45.642Z,42.75
2018-09-12T14:28:20.613Z,42.48
2018-09-12T14:30:48.346Z,42.69
2018-09-12T14:33:15.582Z,42.51
2018-09-12T14:35:43.332Z,42.59
2018-09-12T14:38:10.987Z,42.28
2018-09-12T14:40:38.671Z,41.90
2018-09-12T14:43:06.589Z,42.48
2018-09-12T14:45:34.311Z,42.80
2018-09-12T14:48:02.095Z,42.26
2018-09-12T14:50:29.853Z,41.91
2018-09-12T14:52:57.591Z,42.61
2018-09-12T14:55:25.075Z,42.06
2018-09-12T14:57:52.696Z,42.22
2018-09-12T15:00:26.372Z,42.15
2018-09-12T15:02:54.978Z,41.51
2018-09-12T15:05:22.205Z,41.16
2018-09-12T15:07:49.902Z,41.36
2018-09-12T15:10:17.911Z,40.92
2018-09-12T15:12:46.042Z,42.30
2018-09-12T15:15:13.995Z,41.90
2018-09-12T15:17:42.986Z,41.35
2018-09-12T15:20:10.762Z,41.04
2018-09-12T15:22:38.642Z,40.63
2018-09-12T15:25:06.307Z,40.17
2018-09-12T15:27:33.887Z,40.51
2018-09-12T15:30:01.668Z,40.75
2018-09-12T15:32:29.485Z,41.33
2018-09-12T15:34:57.040Z,39.78
2018-09-12T15:37:24.883Z,39.82
2018-09-12T15:39:53.608Z,39.95
2018-09-12T15:42:21.420Z,39.43
2018-09-12T15:44:49.063Z,39.82
2018-09-12T15:47:16.894Z,38.94
2018-09-12T15:49:44.974Z,39.23
2018-09-12T15:52:12.859Z,39.61
2018-09-12T15:54:41.335Z,39.56
2018-09-12T15:57:09.316Z,39.41
2018-09-12T15:59:36.927Z,39.18
2018-09-12T16:02:04.067Z,39.91
2018-09-12T16:04:32.400Z,40.16
2018-09-12T16:07:00.038Z,40.07
2018-09-12T16:09:27.710Z,40.50
2018-09-12T16:11:55.743Z,39.41
2018-09-12T16:14:23.487Z,40.17
2018-09-12T16:16:51.254Z,39.67
2018-09-12T16:19:18.740Z,39.67
2018-09-12T16:21:46.452Z,39.91
2018-09-12T16:24:14.063Z,39.89
2018-09-12T16:26:41.870Z,40.39
2018-09-12T16:29:10.181Z,39.52
2018-09-12T16:31:37.822Z,40.72
2018-09-12T16:34:05.699Z,40.46
2018-09-12T16:36:33.658Z,40.61
2018-09-12T16:39:01.526Z,40.26
2018-09-12T16:41:29.334Z,40.86
2018-09-12T16:43:56.578Z,40.68
2018-09-12T16:46:24.488Z,40.59
2018-09-12T16:48:52.063Z,40.24
2018-09-12T16:51:19.790Z,40.33
2018-09-12T16:53:47.735Z,40.18
2018-09-12T16:56:15.589Z,39.53
2018-09-12T16:58:43.165Z,40.58
2018-09-12T17:01:10.367Z,40.40
2018-09-12T17:03:38.007Z,40.50
2018-09-12T17:06:05.839Z,39.53
2018-09-12T17:08:33.731Z,39.90
2018-09-12T17:11:01.512Z,40.82
2018-09-12T17:13:29.289Z,39.97
2018-09-12T17:15:57.015Z,40.29
2018-09-12T17:18:24.868Z,41.00
2018-09-12T17:20:52.822Z,41.25
2018-09-12T17:23:20.642Z,41.83
2018-09-12T17:25:48.123Z,40.78
2018-09-12T17:28:15.881Z,40.70
2018-09-12T17:30:43.816Z,41.44
2018-09-12T17:33:11.815Z,41.63
2018-09-12T17:35:39.581Z,41.58
2018-09-12T17:38:07.450Z,41.49
2018-09-12T17:40:35.142Z,41.92
2018-09-12T17:43:02.739Z,42.00
2018-09-12T17:45:30.490Z,42.57
2018-09-12T17:47:57.858Z,42.31
2018-09-12T17:50:25.572Z,42.59
2018-09-12T17:52:53.299Z,42.08
2018-09-12T17:55:20.505Z,43.11
2018-09-12T17:57:48.046Z,42.92
2018-09-12T18:00:15.638Z,42.29
2018-09-12T18:02:43.428Z,42.48
2018-09-12T18:05:10.978Z,42.70
2018-09-12T18:07:38.370Z,42.53
2018-09-12T18:10:06.439Z,42.05
2018-09-12T18:12:34.040Z,43.03
2018-09-12T18:15:01.740Z,42.65
2018-09-12T18:17:29.499Z,42.37
2018-09-12T18:19:57.022Z,43.04
2018-09-12T18:22:24.873Z,42.52
2018-09-12T18:24:52.661Z,42.71
2018-09-12T18:27:20.375Z,42.60
2018-09-12T18:29:47.966Z,43.16
2018-09-12T18:32:15.663Z,42.26
2018-09-12T18:34:43.294Z,42.83
2018-09-12T18:37:10.880Z,42.39
2018-09-12T18:39:38.670Z,43.25
2018-09-12T18:42:06.585Z,42.95
2018-09-12T18:44:34.387Z,42.42
2018-09-12T18:47:01.966Z,43.14
2018-09-12T18:49:29.859Z,43.02
2018-09-12T18:51:57.702Z,43.47
2018-09-12T18:54:25.446Z,43.37
2018-09-12T18:56:53.064Z,42.57
2018-09-12T18:59:20.920Z,42.75
2018-09-12T19:01:48.576Z,43.06
2018-09-12T19:04:16.191Z,42.61
2018-09-12T19:06:44.020Z,43.00
2018-09-12T19:09:12.359Z,43.22
2018-09-12T19:11:40.020Z,43.90
2018-09-12T19:14:07.974Z,43.64
2018-09-12T19:16:35.745Z,43.89
2018-09-12T19:19:03.447Z,43.21
2018-09-12T19:22:47.984Z,43.40
2018-09-12T19:25:15.654Z,43.66
2018-09-12T19:27:43.010Z,44.35
2018-09-12T19:30:10.822Z,43.90
2018-09-12T19:32:38.569Z,44.44
2018-09-12T19:35:06.208Z,44.04
2018-09-12T19:37:34.166Z,43.80
2018-09-12T19:40:02.027Z,44.67
2018-09-12T19:42:30.024Z,44.53
2018-09-12T19:44:57.729Z,44.33
2018-09-12T19:47:25.534Z,44.70
2018-09-12T19:49:53.293Z,44.30
2018-09-12T19:52:21.208Z,44.01
2018-09-12T19:54:48.906Z,44.00
2018-09-12T19:57:17.752Z,43.94
2018-09-12T19:59:45.563Z,44.96
2018-09-12T20:02:23.611Z,44.15
2018-09-12T20:04:51.522Z,44.26
2018-09-12T20:07:18.849Z,45.26
2018-09-12T20:09:46.688Z,44.83
2018-09-12T20:12:14.482Z,45.05
2018-09-12T20:14:42.027Z,44.55
2018-09-12T20:17:09.830Z,45.31
2018-09-12T20:19:37.974Z,44.38
2018-09-12T20:22:56.718Z,44.62
2018-09-12T20:25:24.626Z,44.91
2018-09-12T20:27:52.314Z,45.40
2018-09-12T20:30:19.995Z,44.53
2018-09-12T20:32:47.061Z,44.90
2018-09-12T20:35:14.859Z,44.80
2018-09-12T20:38:14.479Z,45.38
2018-09-12T20:40:42.115Z,45.26
2018-09-12T20:43:09.748Z,45.48
2018-09-12T20:45:37.706Z,44.87
2018-09-12T20:48:05.532Z,45.62
2018-09-12T20:51:09.739Z,45.79
2018-09-12T20:53:37.498Z,45.56
2018-09-12T20:56:05.570Z,46.35
2018-09-12T20:58:33.493Z,46.30
2018-09-12T21:01:01.192Z,45.70
2018-09-12T21:03:28.963Z,46.10
2018-09-12T21:05:56.631Z,46.26
2018-09-12T21:08:24.573Z,46.92
2018-09-12T21:10:52.406Z,46.61
2018-09-12T21:13:19.955Z,46.68
2018-09-12T21:15:47.834Z,46.47
2018-09-12T21:18:15.613Z,47.35
2018-09-12T21:20:43.297Z,46.34
2018-09-12T21:23:11.510Z,46.47
2018-09-12T21:25:39.062Z,46.81
2018-09-12T21:28:06.909Z,47.13
2018-09-12T21:30:35.001Z,47.54
2018-09-12T21:33:02.769Z,47.04
2018-09-12T21:35:30.565Z,46.93
2018-09-12T21:37:58.184Z,46.82
2018-09-12T21:40:25.822Z,47.42
2018-09-12T21:42:53.567Z,47.62
2018-09-12T21:45:22.169Z,47.12
2018-09-12T21:47:49.954Z,47.42
2018-09-12T21:50:17.602Z,47.66
2018-09-12T21:52:45.306Z,47.25
2018-09-12T21:55:13.004Z,47.90
2018-09-12T21:57:40.654Z,48.48
2018-09-12T22:00:08.839Z,47.79
2018-09-12T22:02:36.588Z,47.75
2018-09-12T22:05:04.971Z,47.77
2018-09-12T22:07:32.785Z,47.88
2018-09-12T22:10:00.499Z,47.49
2018-09-12T22:12:28.131Z,48.65
2018-09-12T22:14:55.766Z,48.25
2018-09-12T22:17:23.572Z,48.77
2018-09-12T22:19:50.641Z,48.49
2018-09-12T22:22:18.510Z,48.38
2018-09-12T22:24:46.379Z,48.02
2018-09-12T22:27:20.951Z,48.14
2018-09-12T22:29:48.828Z,49.01
2018-09-12T22:32:16.785Z,48.03
2018-09-12T22:34:44.010Z,48.70
2018-09-12T22:37:11.634Z,49.34
2018-09-12T22:39:39.375Z,49.13
2018-09-12T22:42:07.174Z,49.29
2018-09-12T22:44:35.019Z,49.49
2018-09-12T22:47:02.726Z,50.23
2018-09-12T22:49:30.578Z,49.63
2018-09-12T22:51:58.239Z,49.28
2018-09-12T22:54:25.967Z,49.30
2018-09-12T22:56:53.418Z,50.00
2018-09-12T22:59:21.407Z,49.99
2018-09-12T23:01:49.300Z,49.55
2018-09-12T23:04:17.191Z,50.31
2018-09-12T23:07:45.731Z,50.19
2018-09-12T23:10:13.594Z,50.69
2018-09-12T23:14:42.025Z,50.22
2018-09-12T23:17:09.835Z,50.38
2018-09-12T23:19:37.038Z,50.63
2018-09-12T23:22:05.175Z,50.55
2018-09-12T23:24:32.940Z,50.54
2018-09-12T23:27:00.638Z,49.74
2018-09-12T23:29:28.577Z,50.63
2018-09-12T23:31:56.305Z,50.09
2018-09-12T23:34:24.177Z,49.67
2018-09-12T23:36:51.926Z,49.77
2018-09-12T23:39:19.744Z,49.48
2018-09-12T23:41:47.535Z,49.87
2018-09-12T23:44:15.197Z,50.14
2018-09-12T23:46:42.919Z,49.30
2018-09-12T23:49:10.737Z,50.20
2018-09-12T23:51:38.815Z,49.28
2018-09-12T23:54:06.784Z,49.86
2018-09-12T23:56:34.670Z,49.50
2018-09-12T23:59:02.603Z,49.50
